sensor_id;sensor_type;location;lat;lon;timestamp;P1;durP1;ratioP1;P2;durP2;ratioP2
48014;SDS011;33780;51.034;7.120;2023-06-26T02:53:30;7.15;;;3.25;;
48014;SDS011;33780;51.034;7.120;2023-06-26T03:00:13;4.85;;;3.20;;
48014;SDS011;33780;51.034;7.120;2023-06-26T03:06:55;7.10;;;3.25;;
48014;SDS011;33780;51.034;7.120;2023-06-26T03:10:06;5.10;;;3.05;;
48014;SDS011;33780;51.034;7.120;2023-06-26T03:16:54;5.03;;;2.78;;
48014;SDS011;33780;51.034;7.120;2023-06-26T03:22:46;4.43;;;2.75;;
48014;SDS011;33780;51.034;7.120;2023-06-26T03:28:19;5.50;;;3.15;;
48014;SDS011;33780;51.034;7.120;2023-06-26T03:31:15;4.47;;;3.03;;
48014;SDS011;33780;51.034;7.120;2023-06-26T03:37:39;5.28;;;3.13;;
48014;SDS011;33780;51.034;7.120;2023-06-26T03:43:54;5.55;;;3.40;;
48014;SDS011;33780;51.034;7.120;2023-06-26T03:50:18;5.80;;;3.17;;
48014;SDS011;33780;51.034;7.120;2023-06-26T03:52:44;7.75;;;3.40;;
48014;SDS011;33780;51.034;7.120;2023-06-26T03:55:09;5.15;;;3.20;;
48014;SDS011;33780;51.034;7.120;2023-06-26T03:57:35;6.53;;;3.38;;
48014;SDS011;33780;51.034;7.120;2023-06-26T04:00:00;5.65;;;3.00;;
48014;SDS011;33780;51.034;7.120;2023-06-26T04:02:26;5.25;;;3.25;;
48014;SDS011;33780;51.034;7.120;2023-06-26T04:04:51;4.93;;;3.05;;
48014;SDS011;33780;51.034;7.120;2023-06-26T04:07:17;4.53;;;2.65;;
48014;SDS011;33780;51.034;7.120;2023-06-26T04:09:42;5.00;;;3.17;;
48014;SDS011;33780;51.034;7.120;2023-06-26T04:12:08;4.72;;;3.00;;
48014;SDS011;33780;51.034;7.120;2023-06-26T04:14:33;5.50;;;3.20;;
48014;SDS011;33780;51.034;7.120;2023-06-26T04:16:59;5.85;;;3.28;;
48014;SDS011;33780;51.034;7.120;2023-06-26T04:19:26;5.45;;;3.17;;
48014;SDS011;33780;51.034;7.120;2023-06-26T04:21:52;6.10;;;2.92;;
48014;SDS011;33780;51.034;7.120;2023-06-26T04:24:17;4.95;;;3.17;;
48014;SDS011;33780;51.034;7.120;2023-06-26T04:26:42;7.20;;;3.20;;
48014;SDS011;33780;51.034;7.120;2023-06-26T04:29:07;5.72;;;3.10;;
48014;SDS011;33780;51.034;7.120;2023-06-26T04:31:33;4.53;;;3.03;;
48014;SDS011;33780;51.034;7.120;2023-06-26T04:33:59;5.85;;;3.28;;
48014;SDS011;33780;51.034;7.120;2023-06-26T04:36:24;6.07;;;3.20;;
48014;SDS011;33780;51.034;7.120;2023-06-26T04:38:53;4.90;;;2.88;;
48014;SDS011;33780;51.034;7.120;2023-06-26T04:41:19;6.68;;;3.05;;
48014;SDS011;33780;51.034;7.120;2023-06-26T04:43:44;4.88;;;2.90;;
48014;SDS011;33780;51.034;7.120;2023-06-26T04:46:09;5.65;;;3.10;;
48014;SDS011;33780;51.034;7.120;2023-06-26T04:48:42;4.57;;;2.95;;
48014;SDS011;33780;51.034;7.120;2023-06-26T04:51:16;5.47;;;3.20;;
48014;SDS011;33780;51.034;7.120;2023-06-26T04:53:45;6.30;;;3.65;;
48014;SDS011;33780;51.034;7.120;2023-06-26T04:56:11;6.00;;;3.00;;
48014;SDS011;33780;51.034;7.120;2023-06-26T04:58:39;5.05;;;3.47;;
48014;SDS011;33780;51.034;7.120;2023-06-26T05:01:05;5.35;;;3.00;;
48014;SDS011;33780;51.034;7.120;2023-06-26T05:03:34;5.38;;;3.17;;
48014;SDS011;33780;51.034;7.120;2023-06-26T05:06:15;6.00;;;3.20;;
48014;SDS011;33780;51.034;7.120;2023-06-26T05:08:47;4.80;;;2.97;;
48014;SDS011;33780;51.034;7.120;2023-06-26T05:11:33;4.57;;;2.60;;
48014;SDS011;33780;51.034;7.120;2023-06-26T05:13:59;4.97;;;2.85;;
48014;SDS011;33780;51.034;7.120;2023-06-26T05:16:24;6.78;;;2.97;;
48014;SDS011;33780;51.034;7.120;2023-06-26T05:18:50;5.25;;;2.67;;
48014;SDS011;33780;51.034;7.120;2023-06-26T05:21:24;5.05;;;2.80;;
48014;SDS011;33780;51.034;7.120;2023-06-26T05:24:11;5.07;;;2.58;;
48014;SDS011;33780;51.034;7.120;2023-06-26T05:26:38;4.72;;;2.33;;
48014;SDS011;33780;51.034;7.120;2023-06-26T05:29:07;5.15;;;2.78;;
48014;SDS011;33780;51.034;7.120;2023-06-26T05:31:41;4.20;;;2.43;;
48014;SDS011;33780;51.034;7.120;2023-06-26T05:34:12;4.53;;;2.58;;
48014;SDS011;33780;51.034;7.120;2023-06-26T05:36:51;4.43;;;2.20;;
48014;SDS011;33780;51.034;7.120;2023-06-26T05:39:28;3.80;;;2.15;;
48014;SDS011;33780;51.034;7.120;2023-06-26T05:45:00;4.40;;;2.65;;
48014;SDS011;33780;51.034;7.120;2023-06-26T05:47:37;5.10;;;2.33;;
48014;SDS011;33780;51.034;7.120;2023-06-26T05:50:05;4.30;;;2.33;;
48014;SDS011;33780;51.034;7.120;2023-06-26T05:53:11;3.60;;;2.15;;
48014;SDS011;33780;51.034;7.120;2023-06-26T05:55:42;5.75;;;2.30;;
48014;SDS011;33780;51.034;7.120;2023-06-26T05:58:34;4.65;;;2.28;;
48014;SDS011;33780;51.034;7.120;2023-06-26T06:01:00;4.10;;;2.10;;
48014;SDS011;33780;51.034;7.120;2023-06-26T06:03:25;4.60;;;2.10;;
48014;SDS011;33780;51.034;7.120;2023-06-26T06:05:54;4.35;;;2.17;;
48014;SDS011;33780;51.034;7.120;2023-06-26T06:08:30;4.38;;;2.03;;
48014;SDS011;33780;51.034;7.120;2023-06-26T06:10:59;5.45;;;2.35;;
48014;SDS011;33780;51.034;7.120;2023-06-26T06:13:39;3.38;;;2.00;;
48014;SDS011;33780;51.034;7.120;2023-06-26T06:16:09;5.95;;;2.17;;
48014;SDS011;33780;51.034;7.120;2023-06-26T06:18:37;3.88;;;1.67;;
48014;SDS011;33780;51.034;7.120;2023-06-26T06:21:03;4.15;;;1.98;;
48014;SDS011;33780;51.034;7.120;2023-06-26T06:23:32;3.22;;;1.65;;
48014;SDS011;33780;51.034;7.120;2023-06-26T06:26:03;3.47;;;1.83;;
48014;SDS011;33780;51.034;7.120;2023-06-26T06:28:32;4.13;;;1.90;;
48014;SDS011;33780;51.034;7.120;2023-06-26T06:31:02;6.40;;;1.85;;
48014;SDS011;33780;51.034;7.120;2023-06-26T06:33:46;5.07;;;1.95;;
48014;SDS011;33780;51.034;7.120;2023-06-26T06:36:17;3.78;;;2.10;;
48014;SDS011;33780;51.034;7.120;2023-06-26T06:38:58;4.88;;;1.77;;
48014;SDS011;33780;51.034;7.120;2023-06-26T06:41:28;4.70;;;2.13;;
48014;SDS011;33780;51.034;7.120;2023-06-26T06:44:07;5.93;;;2.08;;
48014;SDS011;33780;51.034;7.120;2023-06-26T06:46:35;6.30;;;2.08;;
48014;SDS011;33780;51.034;7.120;2023-06-26T06:49:00;4.55;;;2.20;;
48014;SDS011;33780;51.034;7.120;2023-06-26T06:51:26;4.35;;;2.03;;
48014;SDS011;33780;51.034;7.120;2023-06-26T06:53:52;4.45;;;1.80;;
48014;SDS011;33780;51.034;7.120;2023-06-26T06:56:17;3.33;;;2.03;;
48014;SDS011;33780;51.034;7.120;2023-06-26T06:58:42;4.72;;;1.80;;
48014;SDS011;33780;51.034;7.120;2023-06-26T07:01:09;5.07;;;2.13;;
48014;SDS011;33780;51.034;7.120;2023-06-26T07:03:34;5.35;;;2.00;;
48014;SDS011;33780;51.034;7.120;2023-06-26T07:09:17;3.63;;;1.90;;
48014;SDS011;33780;51.034;7.120;2023-06-26T07:14:57;4.20;;;1.85;;
48014;SDS011;33780;51.034;7.120;2023-06-26T07:17:26;3.85;;;1.50;;
48014;SDS011;33780;51.034;7.120;2023-06-26T07:19:54;6.78;;;1.90;;
48014;SDS011;33780;51.034;7.120;2023-06-26T07:22:45;4.10;;;1.70;;
48014;SDS011;33780;51.034;7.120;2023-06-26T07:25:28;4.00;;;2.05;;
48014;SDS011;33780;51.034;7.120;2023-06-26T07:28:17;4.88;;;2.20;;
48014;SDS011;33780;51.034;7.120;2023-06-26T07:31:15;6.93;;;2.00;;
48014;SDS011;33780;51.034;7.120;2023-06-26T07:34:07;5.55;;;2.13;;
48014;SDS011;33780;51.034;7.120;2023-06-26T07:36:50;5.45;;;2.10;;
48014;SDS011;33780;51.034;7.120;2023-06-26T07:39:34;3.70;;;2.15;;
48014;SDS011;33780;51.034;7.120;2023-06-26T07:42:09;5.53;;;2.25;;
48014;SDS011;33780;51.034;7.120;2023-06-26T07:44:37;5.13;;;1.90;;
48014;SDS011;33780;51.034;7.120;2023-06-26T07:47:06;3.30;;;1.88;;
48014;SDS011;33780;51.034;7.120;2023-06-26T07:52:21;3.38;;;2.17;;
48014;SDS011;33780;51.034;7.120;2023-06-26T07:54:46;7.97;;;2.13;;
48014;SDS011;33780;51.034;7.120;2023-06-26T07:57:13;7.45;;;2.40;;
48014;SDS011;33780;51.034;7.120;2023-06-26T07:59:39;4.53;;;2.15;;
48014;SDS011;33780;51.034;7.120;2023-06-26T08:02:04;4.72;;;2.17;;
48014;SDS011;33780;51.034;7.120;2023-06-26T08:04:41;3.92;;;2.25;;
48014;SDS011;33780;51.034;7.120;2023-06-26T08:07:06;5.53;;;2.50;;
48014;SDS011;33780;51.034;7.120;2023-06-26T08:09:32;4.18;;;2.28;;
48014;SDS011;33780;51.034;7.120;2023-06-26T08:11:57;5.10;;;2.10;;
48014;SDS011;33780;51.034;7.120;2023-06-26T08:14:32;3.92;;;2.10;;
48014;SDS011;33780;51.034;7.120;2023-06-26T08:16:57;4.20;;;2.28;;
48014;SDS011;33780;51.034;7.120;2023-06-26T08:19:24;3.72;;;1.90;;
48014;SDS011;33780;51.034;7.120;2023-06-26T08:21:50;5.72;;;2.25;;
48014;SDS011;33780;51.034;7.120;2023-06-26T08:24:18;5.88;;;2.13;;
48014;SDS011;33780;51.034;7.120;2023-06-26T08:26:55;6.82;;;2.33;;
48014;SDS011;33780;51.034;7.120;2023-06-26T08:29:33;6.55;;;2.25;;
48014;SDS011;33780;51.034;7.120;2023-06-26T08:32:07;3.88;;;2.08;;
48014;SDS011;33780;51.034;7.120;2023-06-26T08:34:36;5.10;;;2.30;;
48014;SDS011;33780;51.034;7.120;2023-06-26T08:37:24;6.13;;;2.20;;
48014;SDS011;33780;51.034;7.120;2023-06-26T08:40:06;5.05;;;2.50;;
48014;SDS011;33780;51.034;7.120;2023-06-26T08:42:46;4.90;;;2.30;;
48014;SDS011;33780;51.034;7.120;2023-06-26T08:45:12;7.20;;;2.00;;
48014;SDS011;33780;51.034;7.120;2023-06-26T08:47:41;3.53;;;1.90;;
48014;SDS011;33780;51.034;7.120;2023-06-26T08:50:19;6.45;;;2.15;;
48014;SDS011;33780;51.034;7.120;2023-06-26T08:53:04;3.95;;;2.03;;
48014;SDS011;33780;51.034;7.120;2023-06-26T08:55:53;5.32;;;2.13;;
48014;SDS011;33780;51.034;7.120;2023-06-26T09:11:32;5.93;;;2.58;;
48014;SDS011;33780;51.034;7.120;2023-06-26T09:14:09;5.05;;;2.10;;
48014;SDS011;33780;51.034;7.120;2023-06-26T09:16:52;6.38;;;2.25;;
48014;SDS011;33780;51.034;7.120;2023-06-26T09:19:18;4.00;;;2.25;;
48014;SDS011;33780;51.034;7.120;2023-06-26T09:21:43;6.00;;;2.08;;
48014;SDS011;33780;51.034;7.120;2023-06-26T09:24:09;3.72;;;1.80;;
48014;SDS011;33780;51.034;7.120;2023-06-26T09:26:35;8.43;;;2.25;;
48014;SDS011;33780;51.034;7.120;2023-06-26T09:29:02;3.00;;;1.83;;
48014;SDS011;33780;51.034;7.120;2023-06-26T09:31:28;6.18;;;2.10;;
48014;SDS011;33780;51.034;7.120;2023-06-26T09:34:00;2.95;;;1.67;;
48014;SDS011;33780;51.034;7.120;2023-06-26T09:36:27;4.22;;;1.80;;
48014;SDS011;33780;51.034;7.120;2023-06-26T09:38:54;6.75;;;2.17;;
48014;SDS011;33780;51.034;7.120;2023-06-26T09:41:19;6.47;;;2.22;;
48014;SDS011;33780;51.034;7.120;2023-06-26T09:43:49;4.50;;;2.20;;
48014;SDS011;33780;51.034;7.120;2023-06-26T09:46:16;4.63;;;1.80;;
48014;SDS011;33780;51.034;7.120;2023-06-26T09:48:42;9.52;;;2.15;;
48014;SDS011;33780;51.034;7.120;2023-06-26T09:51:08;4.50;;;2.05;;
48014;SDS011;33780;51.034;7.120;2023-06-26T09:53:34;3.67;;;2.13;;
48014;SDS011;33780;51.034;7.120;2023-06-26T09:56:07;4.68;;;2.25;;
48014;SDS011;33780;51.034;7.120;2023-06-26T09:58:39;5.03;;;2.17;;
48014;SDS011;33780;51.034;7.120;2023-06-26T10:01:07;3.53;;;1.95;;
48014;SDS011;33780;51.034;7.120;2023-06-26T10:03:34;6.20;;;2.22;;
48014;SDS011;33780;51.034;7.120;2023-06-26T10:05:59;4.35;;;2.30;;
48014;SDS011;33780;51.034;7.120;2023-06-26T10:08:26;4.50;;;2.28;;
48014;SDS011;33780;51.034;7.120;2023-06-26T10:10:51;3.65;;;1.92;;
48014;SDS011;33780;51.034;7.120;2023-06-26T10:13:20;2.92;;;1.83;;
48014;SDS011;33780;51.034;7.120;2023-06-26T10:15:48;3.58;;;2.10;;
48014;SDS011;33780;51.034;7.120;2023-06-26T10:18:16;4.65;;;1.98;;
48014;SDS011;33780;51.034;7.120;2023-06-26T10:20:44;3.78;;;1.83;;
48014;SDS011;33780;51.034;7.120;2023-06-26T10:23:13;2.83;;;1.90;;
48014;SDS011;33780;51.034;7.120;2023-06-26T10:25:40;7.72;;;2.08;;
48014;SDS011;33780;51.034;7.120;2023-06-26T10:28:09;3.55;;;1.73;;
48014;SDS011;33780;51.034;7.120;2023-06-26T10:30:37;5.05;;;2.13;;
48014;SDS011;33780;51.034;7.120;2023-06-26T10:33:04;4.47;;;1.88;;
48014;SDS011;33780;51.034;7.120;2023-06-26T10:35:30;4.50;;;1.70;;
48014;SDS011;33780;51.034;7.120;2023-06-26T10:38:00;3.22;;;1.48;;
48014;SDS011;33780;51.034;7.120;2023-06-26T10:40:28;2.58;;;1.58;;
48014;SDS011;33780;51.034;7.120;2023-06-26T10:43:05;2.90;;;1.55;;
48014;SDS011;33780;51.034;7.120;2023-06-26T10:45:36;2.58;;;1.70;;
48014;SDS011;33780;51.034;7.120;2023-06-26T10:48:02;2.58;;;1.27;;
48014;SDS011;33780;51.034;7.120;2023-06-26T10:50:29;3.05;;;1.55;;
48014;SDS011;33780;51.034;7.120;2023-06-26T10:55:47;2.80;;;1.50;;
48014;SDS011;33780;51.034;7.120;2023-06-26T11:03:40;3.83;;;1.85;;
48014;SDS011;33780;51.034;7.120;2023-06-26T11:06:16;4.20;;;1.45;;
48014;SDS011;33780;51.034;7.120;2023-06-26T11:11:16;4.75;;;2.00;;
48014;SDS011;33780;51.034;7.120;2023-06-26T11:13:42;3.55;;;1.58;;
48014;SDS011;33780;51.034;7.120;2023-06-26T11:16:10;4.97;;;1.77;;
48014;SDS011;33780;51.034;7.120;2023-06-26T11:18:37;3.53;;;1.75;;
48014;SDS011;33780;51.034;7.120;2023-06-26T11:21:06;5.38;;;2.00;;
48014;SDS011;33780;51.034;7.120;2023-06-26T11:23:33;3.30;;;1.67;;
48014;SDS011;33780;51.034;7.120;2023-06-26T11:26:17;4.47;;;1.58;;
48014;SDS011;33780;51.034;7.120;2023-06-26T11:28:47;2.40;;;1.63;;
48014;SDS011;33780;51.034;7.120;2023-06-26T11:34:09;2.63;;;1.40;;
48014;SDS011;33780;51.034;7.120;2023-06-26T11:36:37;2.90;;;1.40;;
48014;SDS011;33780;51.034;7.120;2023-06-26T11:39:04;4.15;;;1.50;;
48014;SDS011;33780;51.034;7.120;2023-06-26T11:41:31;3.78;;;1.45;;
48014;SDS011;33780;51.034;7.120;2023-06-26T11:44:08;4.18;;;1.38;;
48014;SDS011;33780;51.034;7.120;2023-06-26T11:46:35;9.13;;;1.58;;
48014;SDS011;33780;51.034;7.120;2023-06-26T11:49:07;2.25;;;1.20;;
48014;SDS011;33780;51.034;7.120;2023-06-26T11:51:33;2.35;;;1.40;;
48014;SDS011;33780;51.034;7.120;2023-06-26T11:54:01;6.38;;;1.63;;
48014;SDS011;33780;51.034;7.120;2023-06-26T11:56:30;3.17;;;1.38;;
48014;SDS011;33780;51.034;7.120;2023-06-26T11:59:00;2.28;;;1.20;;
48014;SDS011;33780;51.034;7.120;2023-06-26T12:01:36;2.22;;;1.17;;
48014;SDS011;33780;51.034;7.120;2023-06-26T12:04:06;2.53;;;1.23;;
48014;SDS011;33780;51.034;7.120;2023-06-26T12:06:35;1.95;;;1.08;;
48014;SDS011;33780;51.034;7.120;2023-06-26T12:09:04;2.22;;;1.10;;
48014;SDS011;33780;51.034;7.120;2023-06-26T12:11:31;1.65;;;1.10;;
48014;SDS011;33780;51.034;7.120;2023-06-26T12:13:57;3.08;;;1.00;;
48014;SDS011;33780;51.034;7.120;2023-06-26T12:16:29;1.83;;;1.10;;
48014;SDS011;33780;51.034;7.120;2023-06-26T12:19:05;2.10;;;1.00;;
48014;SDS011;33780;51.034;7.120;2023-06-26T12:21:43;2.90;;;1.05;;
48014;SDS011;33780;51.034;7.120;2023-06-26T12:24:14;1.88;;;1.00;;
48014;SDS011;33780;51.034;7.120;2023-06-26T12:26:42;4.93;;;1.02;;
48014;SDS011;33780;51.034;7.120;2023-06-26T12:29:09;2.22;;;1.08;;
48014;SDS011;33780;51.034;7.120;2023-06-26T12:31:39;1.92;;;1.00;;
48014;SDS011;33780;51.034;7.120;2023-06-26T12:34:08;1.85;;;0.90;;
48014;SDS011;33780;51.034;7.120;2023-06-26T12:36:41;2.15;;;1.00;;
48014;SDS011;33780;51.034;7.120;2023-06-26T12:39:09;1.80;;;1.00;;
48014;SDS011;33780;51.034;7.120;2023-06-26T12:41:46;3.63;;;1.02;;
48014;SDS011;33780;51.034;7.120;2023-06-26T12:44:22;1.83;;;1.00;;
48014;SDS011;33780;51.034;7.120;2023-06-26T12:46:58;2.65;;;0.75;;
48014;SDS011;33780;51.034;7.120;2023-06-26T12:52:06;1.73;;;1.00;;
48014;SDS011;33780;51.034;7.120;2023-06-26T12:54:36;4.90;;;1.00;;
48014;SDS011;33780;51.034;7.120;2023-06-26T12:57:03;1.45;;;0.80;;
48014;SDS011;33780;51.034;7.120;2023-06-26T12:59:29;2.15;;;0.90;;
48014;SDS011;33780;51.034;7.120;2023-06-26T13:01:56;2.53;;;1.00;;
48014;SDS011;33780;51.034;7.120;2023-06-26T13:04:21;5.88;;;1.13;;
48014;SDS011;33780;51.034;7.120;2023-06-26T13:06:46;3.05;;;1.13;;
48014;SDS011;33780;51.034;7.120;2023-06-26T13:09:12;3.33;;;1.20;;
48014;SDS011;33780;51.034;7.120;2023-06-26T13:11:38;2.47;;;1.05;;
48014;SDS011;33780;51.034;7.120;2023-06-26T13:14:03;3.13;;;0.90;;
48014;SDS011;33780;51.034;7.120;2023-06-26T13:16:28;2.83;;;0.85;;
48014;SDS011;33780;51.034;7.120;2023-06-26T13:18:54;2.22;;;0.80;;
48014;SDS011;33780;51.034;7.120;2023-06-26T13:21:21;2.25;;;0.60;;
48014;SDS011;33780;51.034;7.120;2023-06-26T13:23:46;1.60;;;0.77;;
48014;SDS011;33780;51.034;7.120;2023-06-26T13:26:11;2.50;;;0.60;;
48014;SDS011;33780;51.034;7.120;2023-06-26T13:28:37;3.10;;;0.70;;
48014;SDS011;33780;51.034;7.120;2023-06-26T13:31:02;3.17;;;0.90;;
48014;SDS011;33780;51.034;7.120;2023-06-26T13:33:29;2.05;;;0.90;;
48014;SDS011;33780;51.034;7.120;2023-06-26T13:35:55;3.08;;;0.50;;
48014;SDS011;33780;51.034;7.120;2023-06-26T13:38:21;1.98;;;0.57;;
48014;SDS011;33780;51.034;7.120;2023-06-26T13:40:51;4.03;;;0.70;;
48014;SDS011;33780;51.034;7.120;2023-06-26T13:43:16;1.70;;;0.65;;
48014;SDS011;33780;51.034;7.120;2023-06-26T13:45:42;4.40;;;0.85;;
48014;SDS011;33780;51.034;7.120;2023-06-26T13:48:07;2.60;;;0.80;;
48014;SDS011;33780;51.034;7.120;2023-06-26T13:50:32;2.67;;;0.57;;
48014;SDS011;33780;51.034;7.120;2023-06-26T13:52:58;2.38;;;0.55;;
48014;SDS011;33780;51.034;7.120;2023-06-26T13:55:23;1.50;;;0.60;;
48014;SDS011;33780;51.034;7.120;2023-06-26T13:57:48;1.20;;;0.50;;
48014;SDS011;33780;51.034;7.120;2023-06-26T14:00:14;1.85;;;0.57;;
48014;SDS011;33780;51.034;7.120;2023-06-26T14:02:44;2.00;;;0.60;;
48014;SDS011;33780;51.034;7.120;2023-06-26T14:05:10;1.63;;;0.70;;
48014;SDS011;33780;51.034;7.120;2023-06-26T14:07:35;1.73;;;0.73;;
48014;SDS011;33780;51.034;7.120;2023-06-26T14:10:01;1.30;;;0.63;;
48014;SDS011;33780;51.034;7.120;2023-06-26T14:12:26;2.28;;;0.70;;
48014;SDS011;33780;51.034;7.120;2023-06-26T14:14:51;1.88;;;0.70;;
48014;SDS011;33780;51.034;7.120;2023-06-26T14:17:17;1.35;;;0.50;;
48014;SDS011;33780;51.034;7.120;2023-06-26T14:19:42;2.45;;;0.73;;
48014;SDS011;33780;51.034;7.120;2023-06-26T14:22:07;1.02;;;0.40;;
48014;SDS011;33780;51.034;7.120;2023-06-26T14:24:32;0.80;;;0.50;;
48014;SDS011;33780;51.034;7.120;2023-06-26T14:26:58;3.35;;;0.75;;
48014;SDS011;33780;51.034;7.120;2023-06-26T14:29:23;1.75;;;0.57;;
48014;SDS011;33780;51.034;7.120;2023-06-26T14:31:48;0.98;;;0.52;;
48014;SDS011;33780;51.034;7.120;2023-06-26T14:34:14;3.55;;;0.50;;
48014;SDS011;33780;51.034;7.120;2023-06-26T14:36:39;2.03;;;0.50;;
48014;SDS011;33780;51.034;7.120;2023-06-26T14:39:04;1.25;;;0.45;;
48014;SDS011;33780;51.034;7.120;2023-06-26T14:41:30;1.00;;;0.47;;
48014;SDS011;33780;51.034;7.120;2023-06-26T14:43:55;2.20;;;0.45;;
48014;SDS011;33780;51.034;7.120;2023-06-26T14:46:20;2.40;;;0.70;;
48014;SDS011;33780;51.034;7.120;2023-06-26T14:48:46;1.17;;;0.52;;
48014;SDS011;33780;51.034;7.120;2023-06-26T14:51:11;2.97;;;0.60;;
48014;SDS011;33780;51.034;7.120;2023-06-26T14:53:36;2.03;;;0.50;;
48014;SDS011;33780;51.034;7.120;2023-06-26T14:56:01;7.97;;;0.93;;
48014;SDS011;33780;51.034;7.120;2023-06-26T14:58:27;1.00;;;0.50;;
48014;SDS011;33780;51.034;7.120;2023-06-26T15:00:53;1.48;;;0.52;;
48014;SDS011;33780;51.034;7.120;2023-06-26T15:03:18;1.58;;;0.55;;
48014;SDS011;33780;51.034;7.120;2023-06-26T15:05:43;2.17;;;0.50;;
48014;SDS011;33780;51.034;7.120;2023-06-26T15:08:08;2.30;;;0.65;;
48014;SDS011;33780;51.034;7.120;2023-06-26T15:10:36;1.05;;;0.50;;
48014;SDS011;33780;51.034;7.120;2023-06-26T15:13:01;2.10;;;0.50;;
48014;SDS011;33780;51.034;7.120;2023-06-26T15:15:26;1.23;;;0.50;;
48014;SDS011;33780;51.034;7.120;2023-06-26T15:17:52;1.67;;;0.52;;
48014;SDS011;33780;51.034;7.120;2023-06-26T15:20:17;2.35;;;0.70;;
48014;SDS011;33780;51.034;7.120;2023-06-26T15:22:42;1.00;;;0.50;;
48014;SDS011;33780;51.034;7.120;2023-06-26T15:25:08;1.40;;;0.60;;
48014;SDS011;33780;51.034;7.120;2023-06-26T15:27:33;1.67;;;0.50;;
48014;SDS011;33780;51.034;7.120;2023-06-26T15:29:59;1.33;;;0.40;;
48014;SDS011;33780;51.034;7.120;2023-06-26T15:32:24;1.95;;;0.68;;
48014;SDS011;33780;51.034;7.120;2023-06-26T15:34:49;2.55;;;0.55;;
48014;SDS011;33780;51.034;7.120;2023-06-26T15:37:15;1.55;;;0.60;;
48014;SDS011;33780;51.034;7.120;2023-06-26T15:39:41;1.77;;;0.80;;
48014;SDS011;33780;51.034;7.120;2023-06-26T15:42:07;1.30;;;0.65;;
48014;SDS011;33780;51.034;7.120;2023-06-26T15:44:32;1.75;;;0.68;;
48014;SDS011;33780;51.034;7.120;2023-06-26T15:46:58;1.70;;;0.70;;
48014;SDS011;33780;51.034;7.120;2023-06-26T15:49:24;2.33;;;0.68;;
48014;SDS011;33780;51.034;7.120;2023-06-26T15:51:49;2.65;;;0.70;;
48014;SDS011;33780;51.034;7.120;2023-06-26T15:54:15;2.65;;;0.80;;
48014;SDS011;33780;51.034;7.120;2023-06-26T15:56:40;1.67;;;0.50;;
48014;SDS011;33780;51.034;7.120;2023-06-26T15:59:06;1.20;;;0.60;;
48014;SDS011;33780;51.034;7.120;2023-06-26T16:01:34;1.60;;;0.73;;
48014;SDS011;33780;51.034;7.120;2023-06-26T16:03:59;1.45;;;0.50;;
48014;SDS011;33780;51.034;7.120;2023-06-26T16:06:25;1.70;;;0.60;;
48014;SDS011;33780;51.034;7.120;2023-06-26T16:08:50;1.58;;;0.60;;
48014;SDS011;33780;51.034;7.120;2023-06-26T16:11:21;1.42;;;0.60;;
48014;SDS011;33780;51.034;7.120;2023-06-26T16:16:29;1.15;;;0.60;;
48014;SDS011;33780;51.034;7.120;2023-06-26T16:18:54;1.05;;;0.50;;
48014;SDS011;33780;51.034;7.120;2023-06-26T16:21:22;1.08;;;0.50;;
48014;SDS011;33780;51.034;7.120;2023-06-26T16:23:47;1.10;;;0.50;;
48014;SDS011;33780;51.034;7.120;2023-06-26T16:26:13;0.80;;;0.40;;
48014;SDS011;33780;51.034;7.120;2023-06-26T16:28:41;3.13;;;0.60;;
48014;SDS011;33780;51.034;7.120;2023-06-26T16:31:07;1.00;;;0.50;;
48014;SDS011;33780;51.034;7.120;2023-06-26T16:33:41;1.80;;;0.52;;
48014;SDS011;33780;51.034;7.120;2023-06-26T16:36:10;3.60;;;0.68;;
48014;SDS011;33780;51.034;7.120;2023-06-26T16:38:35;1.30;;;0.50;;
48014;SDS011;33780;51.034;7.120;2023-06-26T16:41:03;2.08;;;0.50;;
48014;SDS011;33780;51.034;7.120;2023-06-26T16:43:31;1.52;;;0.60;;
48014;SDS011;33780;51.034;7.120;2023-06-26T16:46:02;2.15;;;0.63;;
48014;SDS011;33780;51.034;7.120;2023-06-26T16:48:28;1.25;;;0.50;;
48014;SDS011;33780;51.034;7.120;2023-06-26T16:50:53;1.30;;;0.57;;
48014;SDS011;33780;51.034;7.120;2023-06-26T16:53:18;2.67;;;0.60;;
48014;SDS011;33780;51.034;7.120;2023-06-26T16:55:44;1.27;;;0.63;;
48014;SDS011;33780;51.034;7.120;2023-06-26T16:58:12;1.33;;;0.70;;
48014;SDS011;33780;51.034;7.120;2023-06-26T17:00:38;0.93;;;0.50;;
48014;SDS011;33780;51.034;7.120;2023-06-26T17:03:06;0.90;;;0.45;;
48014;SDS011;33780;51.034;7.120;2023-06-26T17:05:35;3.13;;;0.60;;
48014;SDS011;33780;51.034;7.120;2023-06-26T17:08:00;1.15;;;0.60;;
48014;SDS011;33780;51.034;7.120;2023-06-26T17:10:31;1.60;;;0.40;;
48014;SDS011;33780;51.034;7.120;2023-06-26T17:12:56;2.08;;;0.60;;
48014;SDS011;33780;51.034;7.120;2023-06-26T17:15:22;1.52;;;0.60;;
48014;SDS011;33780;51.034;7.120;2023-06-26T17:17:48;1.55;;;0.60;;
48014;SDS011;33780;51.034;7.120;2023-06-26T17:20:13;1.95;;;0.80;;
48014;SDS011;33780;51.034;7.120;2023-06-26T17:22:39;2.55;;;0.60;;
48014;SDS011;33780;51.034;7.120;2023-06-26T17:25:04;1.20;;;0.60;;
48014;SDS011;33780;51.034;7.120;2023-06-26T17:27:31;1.55;;;0.52;;
48014;SDS011;33780;51.034;7.120;2023-06-26T17:29:56;1.00;;;0.45;;
48014;SDS011;33780;51.034;7.120;2023-06-26T17:32:22;1.65;;;0.90;;
48014;SDS011;33780;51.034;7.120;2023-06-26T17:34:48;3.55;;;0.70;;
48014;SDS011;33780;51.034;7.120;2023-06-26T17:37:14;1.08;;;0.40;;
48014;SDS011;33780;51.034;7.120;2023-06-26T17:39:39;2.05;;;0.50;;
48014;SDS011;33780;51.034;7.120;2023-06-26T17:42:05;1.40;;;0.55;;
48014;SDS011;33780;51.034;7.120;2023-06-26T17:44:31;2.58;;;0.57;;
48014;SDS011;33780;51.034;7.120;2023-06-26T17:46:56;0.80;;;0.32;;
48014;SDS011;33780;51.034;7.120;2023-06-26T17:49:22;2.60;;;0.50;;
48014;SDS011;33780;51.034;7.120;2023-06-26T17:51:47;2.58;;;0.85;;
48014;SDS011;33780;51.034;7.120;2023-06-26T17:54:13;1.23;;;0.50;;
48014;SDS011;33780;51.034;7.120;2023-06-26T17:56:38;2.75;;;0.70;;
48014;SDS011;33780;51.034;7.120;2023-06-26T17:59:04;2.63;;;0.70;;
48014;SDS011;33780;51.034;7.120;2023-06-26T18:01:31;1.10;;;0.50;;
48014;SDS011;33780;51.034;7.120;2023-06-26T18:03:57;2.78;;;0.60;;
48014;SDS011;33780;51.034;7.120;2023-06-26T18:06:23;1.77;;;0.80;;
48014;SDS011;33780;51.034;7.120;2023-06-26T18:08:49;1.60;;;0.40;;
48014;SDS011;33780;51.034;7.120;2023-06-26T18:11:15;0.88;;;0.45;;
48014;SDS011;33780;51.034;7.120;2023-06-26T18:13:40;0.77;;;0.30;;
48014;SDS011;33780;51.034;7.120;2023-06-26T18:16:05;1.63;;;0.60;;
48014;SDS011;33780;51.034;7.120;2023-06-26T18:18:33;2.15;;;0.50;;
48014;SDS011;33780;51.034;7.120;2023-06-26T18:20:58;1.42;;;0.50;;
48014;SDS011;33780;51.034;7.120;2023-06-26T18:23:24;1.10;;;0.50;;
48014;SDS011;33780;51.034;7.120;2023-06-26T18:25:49;3.47;;;0.65;;
48014;SDS011;33780;51.034;7.120;2023-06-26T18:28:15;2.97;;;0.70;;
48014;SDS011;33780;51.034;7.120;2023-06-26T18:30:40;1.25;;;0.60;;
48014;SDS011;33780;51.034;7.120;2023-06-26T18:33:07;1.80;;;1.00;;
48014;SDS011;33780;51.034;7.120;2023-06-26T18:35:32;3.78;;;2.03;;
48014;SDS011;33780;51.034;7.120;2023-06-26T18:37:57;1.67;;;0.70;;
48014;SDS011;33780;51.034;7.120;2023-06-26T18:40:23;1.73;;;0.43;;
48014;SDS011;33780;51.034;7.120;2023-06-26T18:42:48;2.90;;;0.73;;
48014;SDS011;33780;51.034;7.120;2023-06-26T18:45:15;4.18;;;0.77;;
48014;SDS011;33780;51.034;7.120;2023-06-26T18:47:41;1.45;;;0.40;;
48014;SDS011;33780;51.034;7.120;2023-06-26T18:50:07;2.50;;;0.75;;
48014;SDS011;33780;51.034;7.120;2023-06-26T18:52:33;1.92;;;0.45;;
48014;SDS011;33780;51.034;7.120;2023-06-26T18:54:58;0.63;;;0.38;;
48014;SDS011;33780;51.034;7.120;2023-06-26T18:57:24;1.10;;;0.50;;
48014;SDS011;33780;51.034;7.120;2023-06-26T18:59:49;1.77;;;0.50;;
48014;SDS011;33780;51.034;7.120;2023-06-26T19:02:14;2.08;;;0.52;;
48014;SDS011;33780;51.034;7.120;2023-06-26T19:04:42;1.20;;;0.50;;